sensor_id;sensor_type;location;lat;lon;timestamp;P1;durP1;ratioP1;P2;durP2;ratioP2
12171;SDS011;6149;52.418;13.668;2022-12-18T00:01:18;46.20;;;18.57;;
12171;SDS011;6149;52.418;13.668;2022-12-18T00:03:48;44.93;;;18.87;;
12171;SDS011;6149;52.418;13.668;2022-12-18T00:06:18;43.50;;;19.50;;
12171;SDS011;6149;52.418;13.668;2022-12-18T00:08:49;47.03;;;20.50;;
12171;SDS011;6149;52.418;13.668;2022-12-18T00:11:18;47.23;;;20.03;;
12171;SDS011;6149;52.418;13.668;2022-12-18T00:13:47;48.67;;;20.10;;
12171;SDS011;6149;52.418;13.668;2022-12-18T00:16:17;46.57;;;18.77;;
12171;SDS011;6149;52.418;13.668;2022-12-18T00:18:49;49.47;;;19.63;;
12171;SDS011;6149;52.418;13.668;2022-12-18T00:21:19;49.87;;;19.53;;
12171;SDS011;6149;52.418;13.668;2022-12-18T00:23:47;46.87;;;19.43;;
12171;SDS011;6149;52.418;13.668;2022-12-18T00:26:15;45.67;;;19.37;;
12171;SDS011;6149;52.418;13.668;2022-12-18T00:28:44;46.87;;;17.80;;
12171;SDS011;6149;52.418;13.668;2022-12-18T00:31:12;46.30;;;19.00;;
12171;SDS011;6149;52.418;13.668;2022-12-18T00:33:41;41.27;;;17.90;;
12171;SDS011;6149;52.418;13.668;2022-12-18T00:36:10;45.83;;;17.83;;
12171;SDS011;6149;52.418;13.668;2022-12-18T00:38:40;47.20;;;19.17;;
12171;SDS011;6149;52.418;13.668;2022-12-18T00:41:07;47.23;;;19.10;;
12171;SDS011;6149;52.418;13.668;2022-12-18T00:43:36;39.77;;;17.10;;
12171;SDS011;6149;52.418;13.668;2022-12-18T00:46:02;43.60;;;17.97;;
12171;SDS011;6149;52.418;13.668;2022-12-18T00:48:29;37.00;;;17.60;;
12171;SDS011;6149;52.418;13.668;2022-12-18T00:50:56;51.40;;;18.93;;
12171;SDS011;6149;52.418;13.668;2022-12-18T00:53:24;39.07;;;16.87;;
12171;SDS011;6149;52.418;13.668;2022-12-18T00:55:51;39.57;;;16.87;;
12171;SDS011;6149;52.418;13.668;2022-12-18T00:58:17;45.87;;;18.00;;
12171;SDS011;6149;52.418;13.668;2022-12-18T01:00:44;43.10;;;18.33;;
12171;SDS011;6149;52.418;13.668;2022-12-18T01:03:12;44.97;;;18.73;;
12171;SDS011;6149;52.418;13.668;2022-12-18T01:05:40;45.50;;;18.37;;
12171;SDS011;6149;52.418;13.668;2022-12-18T01:08:08;41.50;;;17.53;;
12171;SDS011;6149;52.418;13.668;2022-12-18T01:10:36;40.43;;;16.23;;
12171;SDS011;6149;52.418;13.668;2022-12-18T01:13:06;49.10;;;18.57;;
12171;SDS011;6149;52.418;13.668;2022-12-18T01:15:33;41.30;;;17.67;;
12171;SDS011;6149;52.418;13.668;2022-12-18T01:18:00;40.30;;;15.87;;
12171;SDS011;6149;52.418;13.668;2022-12-18T01:20:26;41.10;;;16.40;;
12171;SDS011;6149;52.418;13.668;2022-12-18T01:22:53;41.87;;;17.07;;
12171;SDS011;6149;52.418;13.668;2022-12-18T01:25:20;39.03;;;16.83;;
12171;SDS011;6149;52.418;13.668;2022-12-18T01:27:48;40.23;;;16.70;;
12171;SDS011;6149;52.418;13.668;2022-12-18T01:30:14;38.13;;;15.87;;
12171;SDS011;6149;52.418;13.668;2022-12-18T01:32:41;40.47;;;15.87;;
12171;SDS011;6149;52.418;13.668;2022-12-18T01:35:08;43.30;;;16.80;;
12171;SDS011;6149;52.418;13.668;2022-12-18T01:37:34;35.40;;;16.63;;
12171;SDS011;6149;52.418;13.668;2022-12-18T01:40:01;38.07;;;16.47;;
12171;SDS011;6149;52.418;13.668;2022-12-18T01:42:28;40.80;;;16.47;;
12171;SDS011;6149;52.418;13.668;2022-12-18T01:44:58;42.30;;;17.27;;
12171;SDS011;6149;52.418;13.668;2022-12-18T01:47:32;37.10;;;16.77;;
12171;SDS011;6149;52.418;13.668;2022-12-18T01:50:04;43.47;;;18.47;;
12171;SDS011;6149;52.418;13.668;2022-12-18T01:52:35;41.70;;;17.70;;
12171;SDS011;6149;52.418;13.668;2022-12-18T01:55:03;39.33;;;17.00;;
12171;SDS011;6149;52.418;13.668;2022-12-18T01:57:35;40.77;;;16.03;;
12171;SDS011;6149;52.418;13.668;2022-12-18T02:00:06;41.67;;;17.90;;
12171;SDS011;6149;52.418;13.668;2022-12-18T02:02:37;45.37;;;17.77;;
12171;SDS011;6149;52.418;13.668;2022-12-18T02:05:06;41.40;;;17.00;;
12171;SDS011;6149;52.418;13.668;2022-12-18T02:07:37;37.13;;;17.30;;
12171;SDS011;6149;52.418;13.668;2022-12-18T02:10:17;41.63;;;17.43;;
12171;SDS011;6149;52.418;13.668;2022-12-18T02:12:53;48.20;;;17.20;;
12171;SDS011;6149;52.418;13.668;2022-12-18T02:15:30;41.53;;;17.60;;
12171;SDS011;6149;52.418;13.668;2022-12-18T02:18:04;36.13;;;16.13;;
12171;SDS011;6149;52.418;13.668;2022-12-18T02:20:36;41.03;;;16.10;;
12171;SDS011;6149;52.418;13.668;2022-12-18T02:23:12;39.33;;;16.87;;
12171;SDS011;6149;52.418;13.668;2022-12-18T02:26:01;44.93;;;17.77;;
12171;SDS011;6149;52.418;13.668;2022-12-18T02:28:36;39.57;;;16.50;;
12171;SDS011;6149;52.418;13.668;2022-12-18T02:31:07;37.70;;;16.37;;
12171;SDS011;6149;52.418;13.668;2022-12-18T02:33:40;35.80;;;16.67;;
12171;SDS011;6149;52.418;13.668;2022-12-18T02:36:10;43.63;;;17.70;;
12171;SDS011;6149;52.418;13.668;2022-12-18T02:38:39;42.30;;;17.30;;
12171;SDS011;6149;52.418;13.668;2022-12-18T02:41:10;48.00;;;17.90;;
12171;SDS011;6149;52.418;13.668;2022-12-18T02:43:37;39.83;;;16.50;;
12171;SDS011;6149;52.418;13.668;2022-12-18T02:48:53;41.27;;;17.77;;
12171;SDS011;6149;52.418;13.668;2022-12-18T02:51:30;49.47;;;18.07;;
12171;SDS011;6149;52.418;13.668;2022-12-18T02:54:05;42.27;;;17.80;;
12171;SDS011;6149;52.418;13.668;2022-12-18T02:56:40;41.23;;;18.70;;
12171;SDS011;6149;52.418;13.668;2022-12-18T02:59:17;43.27;;;18.10;;
12171;SDS011;6149;52.418;13.668;2022-12-18T03:01:52;41.63;;;18.67;;
12171;SDS011;6149;52.418;13.668;2022-12-18T03:04:25;44.80;;;18.37;;
12171;SDS011;6149;52.418;13.668;2022-12-18T03:06:57;45.73;;;19.23;;
12171;SDS011;6149;52.418;13.668;2022-12-18T03:09:29;41.87;;;18.13;;
12171;SDS011;6149;52.418;13.668;2022-12-18T03:12:04;48.03;;;18.20;;
12171;SDS011;6149;52.418;13.668;2022-12-18T03:14:52;42.53;;;17.50;;
12171;SDS011;6149;52.418;13.668;2022-12-18T03:17:25;48.03;;;19.77;;
12171;SDS011;6149;52.418;13.668;2022-12-18T03:19:58;50.30;;;19.93;;
12171;SDS011;6149;52.418;13.668;2022-12-18T03:22:31;45.77;;;18.23;;
12171;SDS011;6149;52.418;13.668;2022-12-18T03:25:00;44.70;;;18.23;;
12171;SDS011;6149;52.418;13.668;2022-12-18T03:27:32;44.30;;;18.73;;
12171;SDS011;6149;52.418;13.668;2022-12-18T03:30:03;55.17;;;19.37;;
12171;SDS011;6149;52.418;13.668;2022-12-18T03:32:36;49.87;;;18.53;;
12171;SDS011;6149;52.418;13.668;2022-12-18T03:35:09;50.53;;;18.37;;
12171;SDS011;6149;52.418;13.668;2022-12-18T03:37:39;46.87;;;17.67;;
12171;SDS011;6149;52.418;13.668;2022-12-18T03:40:06;41.10;;;17.73;;
12171;SDS011;6149;52.418;13.668;2022-12-18T03:42:38;40.23;;;17.30;;
12171;SDS011;6149;52.418;13.668;2022-12-18T03:45:13;44.67;;;17.93;;
12171;SDS011;6149;52.418;13.668;2022-12-18T03:47:52;40.53;;;17.60;;
12171;SDS011;6149;52.418;13.668;2022-12-18T03:50:27;40.63;;;16.77;;
12171;SDS011;6149;52.418;13.668;2022-12-18T03:53:06;41.23;;;16.03;;
12171;SDS011;6149;52.418;13.668;2022-12-18T03:55:45;42.60;;;16.37;;
12171;SDS011;6149;52.418;13.668;2022-12-18T03:58:16;44.90;;;17.70;;
12171;SDS011;6149;52.418;13.668;2022-12-18T04:00:47;38.10;;;16.07;;
12171;SDS011;6149;52.418;13.668;2022-12-18T04:03:16;39.83;;;15.87;;
12171;SDS011;6149;52.418;13.668;2022-12-18T04:05:45;38.53;;;15.90;;
12171;SDS011;6149;52.418;13.668;2022-12-18T04:08:15;34.27;;;15.77;;
12171;SDS011;6149;52.418;13.668;2022-12-18T04:10:42;35.17;;;14.57;;
12171;SDS011;6149;52.418;13.668;2022-12-18T04:13:09;37.67;;;14.67;;
12171;SDS011;6149;52.418;13.668;2022-12-18T04:15:37;37.43;;;14.43;;
12171;SDS011;6149;52.418;13.668;2022-12-18T04:18:05;39.37;;;16.03;;
12171;SDS011;6149;52.418;13.668;2022-12-18T04:20:31;35.27;;;15.33;;
12171;SDS011;6149;52.418;13.668;2022-12-18T04:22:58;39.77;;;15.37;;
12171;SDS011;6149;52.418;13.668;2022-12-18T04:25:24;37.23;;;14.83;;
12171;SDS011;6149;52.418;13.668;2022-12-18T04:27:51;35.70;;;15.57;;
12171;SDS011;6149;52.418;13.668;2022-12-18T04:30:17;40.60;;;15.47;;
12171;SDS011;6149;52.418;13.668;2022-12-18T04:32:45;42.00;;;14.97;;
12171;SDS011;6149;52.418;13.668;2022-12-18T04:35:12;44.70;;;15.40;;
12171;SDS011;6149;52.418;13.668;2022-12-18T04:37:38;38.77;;;16.57;;
12171;SDS011;6149;52.418;13.668;2022-12-18T04:40:05;39.63;;;16.47;;
12171;SDS011;6149;52.418;13.668;2022-12-18T04:42:33;46.47;;;17.33;;
12171;SDS011;6149;52.418;13.668;2022-12-18T04:45:00;43.60;;;16.37;;
12171;SDS011;6149;52.418;13.668;2022-12-18T04:47:26;47.43;;;17.77;;
12171;SDS011;6149;52.418;13.668;2022-12-18T04:49:54;45.33;;;16.07;;
12171;SDS011;6149;52.418;13.668;2022-12-18T04:52:21;44.17;;;17.00;;
12171;SDS011;6149;52.418;13.668;2022-12-18T04:54:47;43.50;;;16.87;;
12171;SDS011;6149;52.418;13.668;2022-12-18T04:57:14;39.93;;;16.53;;
12171;SDS011;6149;52.418;13.668;2022-12-18T04:59:40;36.13;;;14.63;;
12171;SDS011;6149;52.418;13.668;2022-12-18T05:02:07;38.17;;;15.77;;
12171;SDS011;6149;52.418;13.668;2022-12-18T05:04:34;43.57;;;17.07;;
12171;SDS011;6149;52.418;13.668;2022-12-18T05:07:01;47.30;;;16.70;;
12171;SDS011;6149;52.418;13.668;2022-12-18T05:09:28;38.60;;;15.97;;
12171;SDS011;6149;52.418;13.668;2022-12-18T05:11:55;36.10;;;15.40;;
12171;SDS011;6149;52.418;13.668;2022-12-18T05:14:21;40.20;;;16.43;;
12171;SDS011;6149;52.418;13.668;2022-12-18T05:16:48;51.57;;;17.77;;
12171;SDS011;6149;52.418;13.668;2022-12-18T05:19:14;42.73;;;16.93;;
12171;SDS011;6149;52.418;13.668;2022-12-18T05:21:41;37.67;;;16.30;;
12171;SDS011;6149;52.418;13.668;2022-12-18T05:24:09;39.43;;;15.10;;
12171;SDS011;6149;52.418;13.668;2022-12-18T05:26:35;41.07;;;16.73;;
12171;SDS011;6149;52.418;13.668;2022-12-18T05:29:02;43.00;;;16.37;;
12171;SDS011;6149;52.418;13.668;2022-12-18T05:31:29;41.90;;;16.87;;
12171;SDS011;6149;52.418;13.668;2022-12-18T05:33:55;42.37;;;16.90;;
12171;SDS011;6149;52.418;13.668;2022-12-18T05:36:22;35.87;;;15.53;;
12171;SDS011;6149;52.418;13.668;2022-12-18T05:38:49;42.03;;;16.50;;
12171;SDS011;6149;52.418;13.668;2022-12-18T05:41:16;43.10;;;17.30;;
12171;SDS011;6149;52.418;13.668;2022-12-18T05:43:43;43.27;;;16.40;;
12171;SDS011;6149;52.418;13.668;2022-12-18T05:46:11;42.50;;;16.17;;
12171;SDS011;6149;52.418;13.668;2022-12-18T05:48:44;42.17;;;16.17;;
12171;SDS011;6149;52.418;13.668;2022-12-18T05:51:11;39.17;;;16.97;;
12171;SDS011;6149;52.418;13.668;2022-12-18T05:53:40;40.93;;;15.60;;
12171;SDS011;6149;52.418;13.668;2022-12-18T05:56:12;44.20;;;17.03;;
12171;SDS011;6149;52.418;13.668;2022-12-18T05:58:42;42.07;;;16.50;;
12171;SDS011;6149;52.418;13.668;2022-12-18T06:01:10;41.33;;;16.60;;
12171;SDS011;6149;52.418;13.668;2022-12-18T06:03:39;43.57;;;17.73;;
12171;SDS011;6149;52.418;13.668;2022-12-18T06:06:12;43.10;;;17.97;;
12171;SDS011;6149;52.418;13.668;2022-12-18T06:08:40;44.83;;;18.03;;
12171;SDS011;6149;52.418;13.668;2022-12-18T06:11:07;44.23;;;17.00;;
12171;SDS011;6149;52.418;13.668;2022-12-18T06:13:33;41.73;;;17.53;;
12171;SDS011;6149;52.418;13.668;2022-12-18T06:16:02;45.10;;;18.43;;
12171;SDS011;6149;52.418;13.668;2022-12-18T06:18:30;39.73;;;16.97;;
12171;SDS011;6149;52.418;13.668;2022-12-18T06:20:57;43.00;;;16.03;;
12171;SDS011;6149;52.418;13.668;2022-12-18T06:23:25;42.67;;;16.70;;
12171;SDS011;6149;52.418;13.668;2022-12-18T06:25:53;48.00;;;18.17;;
12171;SDS011;6149;52.418;13.668;2022-12-18T06:28:20;47.30;;;17.53;;
12171;SDS011;6149;52.418;13.668;2022-12-18T06:30:47;51.77;;;18.87;;
12171;SDS011;6149;52.418;13.668;2022-12-18T06:33:15;43.63;;;18.57;;
12171;SDS011;6149;52.418;13.668;2022-12-18T06:35:42;48.43;;;17.57;;
12171;SDS011;6149;52.418;13.668;2022-12-18T06:38:09;43.33;;;17.87;;
12171;SDS011;6149;52.418;13.668;2022-12-18T06:40:36;48.23;;;17.73;;
12171;SDS011;6149;52.418;13.668;2022-12-18T06:43:04;45.10;;;17.60;;
12171;SDS011;6149;52.418;13.668;2022-12-18T06:45:31;44.57;;;18.57;;
12171;SDS011;6149;52.418;13.668;2022-12-18T06:47:57;44.03;;;17.83;;
12171;SDS011;6149;52.418;13.668;2022-12-18T06:50:25;51.27;;;18.23;;
12171;SDS011;6149;52.418;13.668;2022-12-18T06:52:52;44.73;;;18.03;;
12171;SDS011;6149;52.418;13.668;2022-12-18T06:55:19;43.67;;;18.47;;
12171;SDS011;6149;52.418;13.668;2022-12-18T06:57:49;45.30;;;17.80;;
12171;SDS011;6149;52.418;13.668;2022-12-18T07:00:15;48.50;;;18.57;;
12171;SDS011;6149;52.418;13.668;2022-12-18T07:02:43;46.20;;;19.17;;
12171;SDS011;6149;52.418;13.668;2022-12-18T07:05:09;44.23;;;16.67;;
12171;SDS011;6149;52.418;13.668;2022-12-18T07:07:37;47.77;;;19.17;;
12171;SDS011;6149;52.418;13.668;2022-12-18T07:10:04;43.13;;;17.30;;
12171;SDS011;6149;52.418;13.668;2022-12-18T07:12:31;43.23;;;17.57;;
12171;SDS011;6149;52.418;13.668;2022-12-18T07:14:58;49.57;;;18.33;;
12171;SDS011;6149;52.418;13.668;2022-12-18T07:17:25;49.70;;;18.20;;
12171;SDS011;6149;52.418;13.668;2022-12-18T07:19:52;49.70;;;18.33;;
12171;SDS011;6149;52.418;13.668;2022-12-18T07:22:18;44.30;;;19.13;;
12171;SDS011;6149;52.418;13.668;2022-12-18T07:24:46;44.87;;;18.30;;
12171;SDS011;6149;52.418;13.668;2022-12-18T07:27:14;49.83;;;18.93;;
12171;SDS011;6149;52.418;13.668;2022-12-18T07:29:40;42.13;;;16.97;;
12171;SDS011;6149;52.418;13.668;2022-12-18T07:32:07;51.57;;;19.07;;
12171;SDS011;6149;52.418;13.668;2022-12-18T07:34:33;55.00;;;19.63;;
12171;SDS011;6149;52.418;13.668;2022-12-18T07:37:00;53.00;;;19.57;;
12171;SDS011;6149;52.418;13.668;2022-12-18T07:39:27;49.50;;;18.23;;
12171;SDS011;6149;52.418;13.668;2022-12-18T07:41:55;50.20;;;18.77;;
12171;SDS011;6149;52.418;13.668;2022-12-18T07:44:39;52.47;;;18.27;;
12171;SDS011;6149;52.418;13.668;2022-12-18T07:47:06;47.27;;;19.43;;
12171;SDS011;6149;52.418;13.668;2022-12-18T07:49:32;52.93;;;18.17;;
12171;SDS011;6149;52.418;13.668;2022-12-18T07:51:59;49.50;;;19.00;;
12171;SDS011;6149;52.418;13.668;2022-12-18T07:54:26;47.40;;;19.07;;
12171;SDS011;6149;52.418;13.668;2022-12-18T07:56:54;55.10;;;19.47;;
12171;SDS011;6149;52.418;13.668;2022-12-18T07:59:22;64.37;;;20.83;;
12171;SDS011;6149;52.418;13.668;2022-12-18T08:01:49;60.87;;;21.10;;
12171;SDS011;6149;52.418;13.668;2022-12-18T08:04:17;56.10;;;19.80;;
12171;SDS011;6149;52.418;13.668;2022-12-18T08:06:43;62.73;;;22.60;;
12171;SDS011;6149;52.418;13.668;2022-12-18T08:09:10;58.10;;;20.17;;
12171;SDS011;6149;52.418;13.668;2022-12-18T08:11:38;55.50;;;21.70;;
12171;SDS011;6149;52.418;13.668;2022-12-18T08:14:08;56.67;;;19.83;;
12171;SDS011;6149;52.418;13.668;2022-12-18T08:16:36;65.30;;;22.57;;
12171;SDS011;6149;52.418;13.668;2022-12-18T08:19:05;64.57;;;21.43;;
12171;SDS011;6149;52.418;13.668;2022-12-18T08:21:31;64.33;;;21.43;;
12171;SDS011;6149;52.418;13.668;2022-12-18T08:24:00;70.40;;;23.00;;
12171;SDS011;6149;52.418;13.668;2022-12-18T08:26:30;83.00;;;23.90;;
12171;SDS011;6149;52.418;13.668;2022-12-18T08:28:58;71.23;;;23.63;;
12171;SDS011;6149;52.418;13.668;2022-12-18T08:31:28;76.70;;;23.73;;
12171;SDS011;6149;52.418;13.668;2022-12-18T08:33:56;70.37;;;22.63;;
12171;SDS011;6149;52.418;13.668;2022-12-18T08:36:25;72.67;;;22.87;;
12171;SDS011;6149;52.418;13.668;2022-12-18T08:38:52;72.30;;;23.67;;
12171;SDS011;6149;52.418;13.668;2022-12-18T08:41:20;67.10;;;23.20;;
12171;SDS011;6149;52.418;13.668;2022-12-18T08:43:48;75.37;;;22.70;;
12171;SDS011;6149;52.418;13.668;2022-12-18T08:46:34;75.87;;;24.83;;
12171;SDS011;6149;52.418;13.668;2022-12-18T08:49:03;77.30;;;23.80;;
12171;SDS011;6149;52.418;13.668;2022-12-18T08:51:31;73.53;;;22.93;;
12171;SDS011;6149;52.418;13.668;2022-12-18T08:53:59;90.00;;;26.27;;
12171;SDS011;6149;52.418;13.668;2022-12-18T08:56:26;82.50;;;24.80;;
12171;SDS011;6149;52.418;13.668;2022-12-18T08:58:53;70.27;;;24.87;;
12171;SDS011;6149;52.418;13.668;2022-12-18T09:01:20;75.20;;;25.27;;
12171;SDS011;6149;52.418;13.668;2022-12-18T09:03:52;78.33;;;24.43;;
12171;SDS011;6149;52.418;13.668;2022-12-18T09:06:20;77.53;;;27.50;;
12171;SDS011;6149;52.418;13.668;2022-12-18T09:08:48;70.07;;;24.97;;
12171;SDS011;6149;52.418;13.668;2022-12-18T09:11:19;68.63;;;22.80;;
12171;SDS011;6149;52.418;13.668;2022-12-18T09:13:48;70.70;;;24.00;;
12171;SDS011;6149;52.418;13.668;2022-12-18T09:16:18;67.40;;;23.27;;
12171;SDS011;6149;52.418;13.668;2022-12-18T09:18:45;65.97;;;22.73;;
12171;SDS011;6149;52.418;13.668;2022-12-18T09:21:16;65.63;;;22.27;;
12171;SDS011;6149;52.418;13.668;2022-12-18T09:23:48;64.40;;;21.27;;
12171;SDS011;6149;52.418;13.668;2022-12-18T09:26:15;62.63;;;22.10;;
12171;SDS011;6149;52.418;13.668;2022-12-18T09:28:42;65.00;;;23.07;;
12171;SDS011;6149;52.418;13.668;2022-12-18T09:31:11;57.23;;;21.23;;
12171;SDS011;6149;52.418;13.668;2022-12-18T09:33:42;53.87;;;21.27;;
12171;SDS011;6149;52.418;13.668;2022-12-18T09:36:11;60.60;;;20.83;;
12171;SDS011;6149;52.418;13.668;2022-12-18T09:38:41;51.53;;;19.17;;
12171;SDS011;6149;52.418;13.668;2022-12-18T09:41:14;59.47;;;22.07;;
12171;SDS011;6149;52.418;13.668;2022-12-18T09:44:05;53.57;;;20.07;;
12171;SDS011;6149;52.418;13.668;2022-12-18T09:46:44;50.50;;;19.50;;
12171;SDS011;6149;52.418;13.668;2022-12-18T09:49:16;62.30;;;22.83;;
12171;SDS011;6149;52.418;13.668;2022-12-18T09:51:47;59.93;;;23.20;;
12171;SDS011;6149;52.418;13.668;2022-12-18T09:54:21;49.53;;;19.23;;
12171;SDS011;6149;52.418;13.668;2022-12-18T09:56:53;49.87;;;20.33;;
12171;SDS011;6149;52.418;13.668;2022-12-18T09:59:23;51.73;;;21.87;;
12171;SDS011;6149;52.418;13.668;2022-12-18T10:01:55;50.03;;;19.97;;
12171;SDS011;6149;52.418;13.668;2022-12-18T10:04:23;50.07;;;20.37;;
12171;SDS011;6149;52.418;13.668;2022-12-18T10:06:52;52.67;;;19.90;;
12171;SDS011;6149;52.418;13.668;2022-12-18T10:09:31;51.20;;;20.23;;
12171;SDS011;6149;52.418;13.668;2022-12-18T10:12:06;47.57;;;18.70;;
12171;SDS011;6149;52.418;13.668;2022-12-18T10:14:41;52.53;;;20.60;;
12171;SDS011;6149;52.418;13.668;2022-12-18T10:17:17;48.97;;;18.60;;
12171;SDS011;6149;52.418;13.668;2022-12-18T10:19:54;45.93;;;17.17;;
12171;SDS011;6149;52.418;13.668;2022-12-18T10:22:32;44.93;;;18.20;;
12171;SDS011;6149;52.418;13.668;2022-12-18T10:25:15;43.60;;;17.40;;
12171;SDS011;6149;52.418;13.668;2022-12-18T10:27:51;47.37;;;18.57;;
12171;SDS011;6149;52.418;13.668;2022-12-18T10:30:21;41.00;;;17.30;;
12171;SDS011;6149;52.418;13.668;2022-12-18T10:32:50;38.17;;;16.90;;
12171;SDS011;6149;52.418;13.668;2022-12-18T10:35:18;40.37;;;17.17;;
12171;SDS011;6149;52.418;13.668;2022-12-18T10:37:59;44.37;;;18.07;;
12171;SDS011;6149;52.418;13.668;2022-12-18T10:40:32;37.60;;;16.23;;
12171;SDS011;6149;52.418;13.668;2022-12-18T10:43:14;44.73;;;18.87;;
12171;SDS011;6149;52.418;13.668;2022-12-18T10:45:57;38.87;;;16.80;;
12171;SDS011;6149;52.418;13.668;2022-12-18T10:48:28;41.13;;;16.03;;
12171;SDS011;6149;52.418;13.668;2022-12-18T10:50:57;44.13;;;19.83;;
12171;SDS011;6149;52.418;13.668;2022-12-18T10:53:24;52.17;;;21.33;;
12171;SDS011;6149;52.418;13.668;2022-12-18T10:55:57;53.53;;;24.60;;
12171;SDS011;6149;52.418;13.668;2022-12-18T10:58:25;42.60;;;18.80;;
12171;SDS011;6149;52.418;13.668;2022-12-18T11:01:04;39.97;;;15.97;;
12171;SDS011;6149;52.418;13.668;2022-12-18T11:03:36;40.80;;;17.43;;
12171;SDS011;6149;52.418;13.668;2022-12-18T11:06:08;37.83;;;15.97;;
12171;SDS011;6149;52.418;13.668;2022-12-18T11:08:38;33.13;;;14.90;;
12171;SDS011;6149;52.418;13.668;2022-12-18T11:11:15;37.90;;;16.50;;
12171;SDS011;6149;52.418;13.668;2022-12-18T11:13:53;35.20;;;15.37;;
12171;SDS011;6149;52.418;13.668;2022-12-18T11:16:29;39.20;;;15.77;;
12171;SDS011;6149;52.418;13.668;2022-12-18T11:19:13;45.03;;;19.40;;
12171;SDS011;6149;52.418;13.668;2022-12-18T11:21:49;34.80;;;15.70;;
12171;SDS011;6149;52.418;13.668;2022-12-18T11:24:18;36.20;;;17.07;;
12171;SDS011;6149;52.418;13.668;2022-12-18T11:27:00;44.70;;;18.17;;
12171;SDS011;6149;52.418;13.668;2022-12-18T11:29:32;42.37;;;17.87;;
12171;SDS011;6149;52.418;13.668;2022-12-18T11:35:17;38.53;;;15.83;;
12171;SDS011;6149;52.418;13.668;2022-12-18T11:37:48;39.20;;;15.67;;
12171;SDS011;6149;52.418;13.668;2022-12-18T11:40:30;37.23;;;16.07;;
12171;SDS011;6149;52.418;13.668;2022-12-18T11:43:06;34.33;;;14.63;;
12171;SDS011;6149;52.418;13.668;2022-12-18T11:45:42;38.17;;;16.07;;
12171;SDS011;6149;52.418;13.668;2022-12-18T11:48:18;37.83;;;15.80;;
12171;SDS011;6149;52.418;13.668;2022-12-18T11:50:51;35.83;;;15.87;;
12171;SDS011;6149;52.418;13.668;2022-12-18T11:53:20;43.73;;;17.83;;
12171;SDS011;6149;52.418;13.668;2022-12-18T11:55:55;44.30;;;18.60;;
12171;SDS011;6149;52.418;13.668;2022-12-18T11:58:34;43.23;;;19.20;;
12171;SDS011;6149;52.418;13.668;2022-12-18T12:01:17;37.97;;;17.80;;
12171;SDS011;6149;52.418;13.668;2022-12-18T12:04:09;37.63;;;15.20;;
12171;SDS011;6149;52.418;13.668;2022-12-18T12:07:05;35.67;;;15.77;;
12171;SDS011;6149;52.418;13.668;2022-12-18T12:09:46;39.37;;;16.60;;
12171;SDS011;6149;52.418;13.668;2022-12-18T12:12:27;34.47;;;16.37;;
12171;SDS011;6149;52.418;13.668;2022-12-18T12:15:16;38.60;;;16.03;;
12171;SDS011;6149;52.418;13.668;2022-12-18T12:17:53;35.90;;;17.17;;
12171;SDS011;6149;52.418;13.668;2022-12-18T12:20:31;37.10;;;16.77;;
12171;SDS011;6149;52.418;13.668;2022-12-18T12:23:14;39.47;;;17.97;;
12171;SDS011;6149;52.418;13.668;2022-12-18T12:25:52;39.87;;;18.17;;
12171;SDS011;6149;52.418;13.668;2022-12-18T12:28:31;39.03;;;17.50;;
12171;SDS011;6149;52.418;13.668;2022-12-18T12:31:24;42.70;;;19.07;;
12171;SDS011;6149;52.418;13.668;2022-12-18T12:34:06;40.60;;;18.47;;
12171;SDS011;6149;52.418;13.668;2022-12-18T12:36:44;38.93;;;17.60;;
12171;SDS011;6149;52.418;13.668;2022-12-18T12:39:28;37.90;;;17.47;;
12171;SDS011;6149;52.418;13.668;2022-12-18T12:42:01;44.30;;;19.40;;
12171;SDS011;6149;52.418;13.668;2022-12-18T12:44:47;43.97;;;18.40;;
12171;SDS011;6149;52.418;13.668;2022-12-18T12:47:20;35.63;;;17.13;;
12171;SDS011;6149;52.418;13.668;2022-12-18T12:49:53;37.50;;;16.40;;
12171;SDS011;6149;52.418;13.668;2022-12-18T12:52:23;35.67;;;17.93;;
12171;SDS011;6149;52.418;13.668;2022-12-18T12:54:57;35.63;;;16.50;;
12171;SDS011;6149;52.418;13.668;2022-12-18T12:57:27;36.00;;;16.40;;
12171;SDS011;6149;52.418;13.668;2022-12-18T13:00:02;32.27;;;16.17;;
12171;SDS011;6149;52.418;13.668;2022-12-18T13:02:35;40.77;;;17.73;;
12171;SDS011;6149;52.418;13.668;2022-12-18T13:05:13;36.50;;;17.60;;
12171;SDS011;6149;52.418;13.668;2022-12-18T13:07:49;35.03;;;18.03;;
12171;SDS011;6149;52.418;13.668;2022-12-18T13:10:25;38.57;;;17.60;;
12171;SDS011;6149;52.418;13.668;2022-12-18T13:12:58;38.20;;;18.73;;
12171;SDS011;6149;52.418;13.668;2022-12-18T13:15:32;35.97;;;17.53;;
12171;SDS011;6149;52.418;13.668;2022-12-18T13:18:06;35.13;;;17.27;;
12171;SDS011;6149;52.418;13.668;2022-12-18T13:20:41;38.70;;;17.90;;
12171;SDS011;6149;52.418;13.668;2022-12-18T13:23:26;37.70;;;17.90;;
12171;SDS011;6149;52.418;13.668;2022-12-18T13:25:55;42.33;;;19.70;;
12171;SDS011;6149;52.418;13.668;2022-12-18T13:28:23;36.80;;;16.80;;
12171;SDS011;6149;52.418;13.668;2022-12-18T13:34:38;38.00;;;18.60;;
12171;SDS011;6149;52.418;13.668;2022-12-18T13:43:23;46.30;;;20.57;;
12171;SDS011;6149;52.418;13.668;2022-12-18T13:46:00;44.20;;;20.60;;
12171;SDS011;6149;52.418;13.668;2022-12-18T13:48:34;42.60;;;20.53;;
12171;SDS011;6149;52.418;13.668;2022-12-18T13:51:07;37.60;;;19.23;;
12171;SDS011;6149;52.418;13.668;2022-12-18T13:53:37;41.40;;;20.23;;
12171;SDS011;6149;52.418;13.668;2022-12-18T13:56:09;34.87;;;18.20;;
12171;SDS011;6149;52.418;13.668;2022-12-18T13:58:41;38.00;;;19.37;;
12171;SDS011;6149;52.418;13.668;2022-12-18T14:01:15;36.63;;;18.80;;
12171;SDS011;6149;52.418;13.668;2022-12-18T14:03:48;37.47;;;18.57;;
12171;SDS011;6149;52.418;13.668;2022-12-18T14:06:16;44.17;;;20.07;;
12171;SDS011;6149;52.418;13.668;2022-12-18T14:08:43;38.43;;;19.33;;
12171;SDS011;6149;52.418;13.668;2022-12-18T14:11:18;39.43;;;19.47;;
12171;SDS011;6149;52.418;13.668;2022-12-18T14:13:47;39.70;;;20.57;;
12171;SDS011;6149;52.418;13.668;2022-12-18T14:16:15;37.43;;;19.03;;
12171;SDS011;6149;52.418;13.668;2022-12-18T14:18:43;39.20;;;18.43;;
12171;SDS011;6149;52.418;13.668;2022-12-18T14:21:19;35.07;;;18.93;;
12171;SDS011;6149;52.418;13.668;2022-12-18T14:23:48;34.43;;;17.80;;
12171;SDS011;6149;52.418;13.668;2022-12-18T14:26:29;39.13;;;19.67;;
12171;SDS011;6149;52.418;13.668;2022-12-18T14:28:58;38.67;;;18.77;;
12171;SDS011;6149;52.418;13.668;2022-12-18T14:31:28;36.13;;;20.27;;
12171;SDS011;6149;52.418;13.668;2022-12-18T14:33:57;33.90;;;17.77;;
12171;SDS011;6149;52.418;13.668;2022-12-18T14:36:25;30.03;;;15.57;;
12171;SDS011;6149;52.418;13.668;2022-12-18T14:38:55;33.80;;;16.47;;
12171;SDS011;6149;52.418;13.668;2022-12-18T14:41:23;34.97;;;17.07;;
12171;SDS011;6149;52.418;13.668;2022-12-18T14:43:53;34.67;;;18.37;;
12171;SDS011;6149;52.418;13.668;2022-12-18T14:46:28;69.10;;;31.60;;
12171;SDS011;6149;52.418;13.668;2022-12-18T14:48:59;34.53;;;18.83;;
12171;SDS011;6149;52.418;13.668;2022-12-18T14:51:29;36.53;;;19.57;;
12171;SDS011;6149;52.418;13.668;2022-12-18T14:53:59;38.03;;;19.07;;
12171;SDS011;6149;52.418;13.668;2022-12-18T14:56:28;35.73;;;18.83;;
12171;SDS011;6149;52.418;13.668;2022-12-18T14:58:58;37.73;;;20.70;;